Time;durP1;ratioP1;P1;durP2;ratioP2;P2;SDS_P1;SDS_P2;PMS_P1;PMS_P2;Temp;Humidity;BMP_temperature;BMP_pressure;BME280_temperature;BME280_humidity;BME280_pressure;Samples;Min_cycle;Max_cycle;Signal;HPM_P1;HPM_P2
2021/11/29 00:00:35;;;;;;;9.85;6.18;;;1.70;89.20;;;;;;5055130;28;20381;-80
2021/11/29 00:03:06;;;;;;;7.72;5.85;;;1.70;89.30;;;;;;5054910;28;20039;-81
2021/11/29 00:05:31;;;;;;;8.73;6.28;;;1.70;89.20;;;;;;5053811;28;20037;-81
2021/11/29 00:08:00;;;;;;;8.57;6.05;;;1.70;89.00;;;;;;5036946;28;20021;-81
2021/11/29 00:10:26;;;;;;;7.07;5.85;;;1.70;89.00;;;;;;5054800;28;20074;-81
2021/11/29 00:12:52;;;;;;;7.72;5.70;;;1.70;89.10;;;;;;5054939;28;20400;-80
2021/11/29 00:15:17;;;;;;;8.93;6.32;;;1.80;89.00;;;;;;5054876;28;20017;-80
2021/11/29 00:17:43;;;;;;;9.43;6.45;;;1.80;88.80;;;;;;5054724;28;20118;-81
2021/11/29 00:20:10;;;;;;;6.78;5.28;;;1.70;89.00;;;;;;5054749;28;20025;-77
2021/11/29 00:22:36;;;;;;;8.68;6.63;;;1.90;89.10;;;;;;5054685;28;20029;-80
2021/11/29 00:25:03;;;;;;;9.23;6.30;;;1.90;88.90;;;;;;5054536;28;20392;-78
2021/11/29 00:27:28;;;;;;;9.60;6.97;;;1.90;88.80;;;;;;5054582;28;20405;-79
2021/11/29 00:29:54;;;;;;;9.32;7.18;;;1.80;88.70;;;;;;5054229;28;20109;-80
2021/11/29 00:32:20;;;;;;;8.90;6.43;;;1.80;88.80;;;;;;5054434;28;20469;-81
2021/11/29 00:34:45;;;;;;;9.30;7.07;;;1.90;88.90;;;;;;5036433;28;20021;-79
2021/11/29 00:37:11;;;;;;;8.45;6.60;;;1.90;88.60;;;;;;5054406;28;20032;-80
2021/11/29 00:39:37;;;;;;;8.25;6.28;;;1.90;88.60;;;;;;5054390;28;20365;-79
2021/11/29 00:42:03;;;;;;;5.70;4.97;;;2.00;88.50;;;;;;5054241;28;20049;-80
2021/11/29 00:44:29;;;;;;;5.65;4.63;;;1.90;88.30;;;;;;5054654;28;20064;-80
2021/11/29 00:46:55;;;;;;;5.03;3.92;;;1.80;88.30;;;;;;5054126;28;20381;-81
2021/11/29 00:49:21;;;;;;;6.28;4.28;;;1.90;88.20;;;;;;5054033;28;20067;-80
2021/11/29 00:51:46;;;;;;;5.45;4.03;;;1.90;88.20;;;;;;5053979;28;20477;-80
2021/11/29 00:54:13;;;;;;;6.47;3.88;;;1.90;87.90;;;;;;5053841;28;20036;-79
2021/11/29 00:56:39;;;;;;;8.18;4.10;;;2.00;87.00;;;;;;5054031;28;20075;-79
2021/11/29 00:59:05;;;;;;;6.65;3.80;;;1.90;86.80;;;;;;5053894;28;20025;-79
2021/11/29 01:01:31;;;;;;;5.22;3.80;;;1.80;86.70;;;;;;5036036;28;20041;-78
2021/11/29 01:03:56;;;;;;;8.32;4.15;;;1.70;86.80;;;;;;5053849;28;20017;-77
2021/11/29 01:06:22;;;;;;;7.22;4.68;;;1.80;86.90;;;;;;5053642;28;20031;-79
2021/11/29 01:08:48;;;;;;;5.80;3.97;;;1.60;87.10;;;;;;5053682;28;20098;-78
2021/11/29 01:11:13;;;;;;;5.75;4.47;;;1.40;87.80;;;;;;5036050;28;20064;-78
2021/11/29 01:13:39;;;;;;;5.57;4.38;;;1.50;88.40;;;;;;5053634;28;20057;-79
2021/11/29 01:16:05;;;;;;;5.93;4.95;;;1.50;88.50;;;;;;5053463;28;20021;-79
2021/11/29 01:18:31;;;;;;;6.50;4.60;;;1.50;88.40;;;;;;5053578;28;20508;-79
2021/11/29 01:20:57;;;;;;;5.57;4.80;;;1.60;88.10;;;;;;5053514;28;20021;-79
2021/11/29 01:23:22;;;;;;;5.15;4.35;;;1.60;88.00;;;;;;5053495;28;20033;-79
2021/11/29 01:25:50;;;;;;;5.70;4.60;;;1.60;87.80;;;;;;5053350;28;20108;-79
2021/11/29 01:28:16;;;;;;;5.55;4.60;;;1.60;87.70;;;;;;5035441;28;20096;-80
2021/11/29 01:30:41;;;;;;;6.40;4.80;;;1.60;87.80;;;;;;5053150;28;20480;-79
2021/11/29 01:33:07;;;;;;;6.03;4.50;;;1.70;87.90;;;;;;5053455;28;20162;-79
2021/11/29 01:35:33;;;;;;;8.07;5.35;;;1.70;88.00;;;;;;5053329;28;20075;-80
2021/11/29 01:37:59;;;;;;;7.07;5.13;;;1.70;88.00;;;;;;5053213;28;20017;-79
2021/11/29 01:40:26;;;;;;;5.68;5.07;;;1.70;87.90;;;;;;5053106;28;20436;-79
2021/11/29 01:43:07;;;;;;;5.70;4.78;;;1.80;87.90;;;;;;5053077;28;20021;-79
2021/11/29 01:45:37;;;;;;;5.22;4.25;;;1.70;88.00;;;;;;5052739;28;20385;-79
2021/11/29 01:48:03;;;;;;;5.20;4.13;;;1.50;88.40;;;;;;5053043;28;20596;-80
2021/11/29 01:50:29;;;;;;;4.57;3.92;;;1.50;88.90;;;;;;5052930;28;20076;-79
2021/11/29 01:52:55;;;;;;;5.40;4.40;;;1.40;89.10;;;;;;5052972;28;20021;-79
2021/11/29 01:55:21;;;;;;;5.32;4.45;;;1.40;89.20;;;;;;5053008;28;20106;-79
2021/11/29 01:57:47;;;;;;;5.13;4.50;;;1.30;89.50;;;;;;5053282;28;20518;-78
2021/11/29 02:00:21;;;;;;;5.00;4.03;;;1.30;89.80;;;;;;5052918;28;20107;-77
2021/11/29 02:02:49;;;;;;;5.22;4.05;;;1.30;89.90;;;;;;5052955;28;20017;-77
2021/11/29 02:05:16;;;;;;;5.95;4.03;;;1.40;89.70;;;;;;5052907;28;20401;-77
2021/11/29 02:07:41;;;;;;;5.22;4.57;;;1.40;89.40;;;;;;5052813;28;20035;-77
2021/11/29 02:10:08;;;;;;;5.32;4.15;;;1.50;89.40;;;;;;5034879;28;20040;-78
2021/11/29 02:12:34;;;;;;;5.47;3.92;;;1.50;90.00;;;;;;5052782;28;20017;-77
2021/11/29 02:15:00;;;;;;;5.82;3.78;;;1.60;88.80;;;;;;5052545;28;20039;-77
2021/11/29 02:17:25;;;;;;;5.90;3.78;;;1.50;88.40;;;;;;5052791;28;20025;-77
2021/11/29 02:19:52;;;;;;;5.18;4.15;;;1.60;88.30;;;;;;5052822;28;20031;-77
2021/11/29 02:22:18;;;;;;;4.30;3.80;;;1.50;88.10;;;;;;5052700;28;20487;-78
2021/11/29 02:24:45;;;;;;;4.95;3.78;;;1.50;88.10;;;;;;5052860;28;20034;-78
2021/11/29 02:27:11;;;;;;;5.20;4.30;;;1.40;88.10;;;;;;5053381;28;20504;-77
2021/11/29 02:29:37;;;;;;;4.70;3.97;;;1.50;88.30;;;;;;5055047;28;20077;-77
2021/11/29 02:32:04;;;;;;;4.65;3.92;;;1.50;88.10;;;;;;5056999;28;20017;-77
2021/11/29 02:34:31;;;;;;;5.88;4.53;;;1.60;88.20;;;;;;5056919;28;20090;-80
2021/11/29 02:37:00;;;;;;;5.47;4.25;;;1.60;88.10;;;;;;5056809;28;20109;-79
2021/11/29 02:39:28;;;;;;;5.13;4.00;;;1.70;87.90;;;;;;5056722;28;20112;-78
2021/11/29 02:41:57;;;;;;;5.63;4.30;;;1.70;87.80;;;;;;5056623;28;20354;-78
2021/11/29 02:44:23;;;;;;;5.97;4.72;;;1.60;86.70;;;;;;5056501;28;20465;-80
2021/11/29 02:46:49;;;;;;;6.05;4.93;;;1.60;86.90;;;;;;5056406;28;20021;-79
2021/11/29 02:49:15;;;;;;;4.90;3.97;;;1.60;86.90;;;;;;5056327;28;20028;-79
2021/11/29 02:51:53;;;;;;;5.95;4.65;;;1.70;87.00;;;;;;5056295;28;20152;-78
2021/11/29 02:54:27;;;;;;;6.57;4.32;;;1.70;87.00;;;;;;5056335;28;20025;-78
2021/11/29 02:56:57;;;;;;;6.40;4.90;;;1.80;86.90;;;;;;5038513;28;20028;-79
2021/11/29 02:59:28;;;;;;;6.88;4.88;;;1.80;86.80;;;;;;5056287;28;20385;-78
2021/11/29 03:01:58;;;;;;;8.32;5.05;;;1.80;86.70;;;;;;5056256;28;20071;-79
2021/11/29 03:04:26;;;;;;;8.32;5.65;;;1.90;86.70;;;;;;5056119;28;20040;-80
2021/11/29 03:06:53;;;;;;;7.22;5.80;;;1.80;86.10;;;;;;5056295;28;20017;-78
2021/11/29 03:09:19;;;;;;;6.88;5.50;;;1.80;86.20;;;;;;5038179;28;20116;-78
2021/11/29 03:11:46;;;;;;;6.20;5.00;;;1.70;86.50;;;;;;5055987;28;20100;-79
2021/11/29 03:14:12;;;;;;;6.10;5.00;;;1.60;86.80;;;;;;5056158;28;20045;-80
2021/11/29 03:16:38;;;;;;;7.53;5.93;;;1.70;87.00;;;;;;5038071;28;20434;-78
2021/11/29 03:19:04;;;;;;;7.40;5.82;;;1.70;87.10;;;;;;5055843;28;20025;-78
2021/11/29 03:21:29;;;;;;;7.10;5.82;;;1.60;87.00;;;;;;5038047;28;20090;-77
2021/11/29 03:23:59;;;;;;;9.15;6.53;;;1.50;87.50;;;;;;5055740;28;20017;-78
2021/11/29 03:26:26;;;;;;;8.63;6.40;;;1.60;87.80;;;;;;5055762;28;20033;-77
2021/11/29 03:28:54;;;;;;;8.45;6.22;;;1.50;88.00;;;;;;5037615;28;20127;-77
2021/11/29 03:31:21;;;;;;;8.75;6.30;;;1.50;88.00;;;;;;5055728;28;20082;-79
2021/11/29 03:33:47;;;;;;;7.82;5.75;;;1.60;87.90;;;;;;5055601;28;20362;-79
2021/11/29 03:36:13;;;;;;;10.65;6.75;;;1.60;87.80;;;;;;5055641;28;20035;-77
2021/11/29 03:38:38;;;;;;;8.80;6.28;;;1.70;87.70;;;;;;5055568;28;20052;-76
2021/11/29 03:41:05;;;;;;;9.85;7.00;;;1.70;87.30;;;;;;5055419;28;20146;-77
2021/11/29 03:43:31;;;;;;;9.30;6.57;;;1.80;87.10;;;;;;5055483;28;20021;-77
2021/11/29 03:45:56;;;;;;;8.98;6.10;;;1.80;87.00;;;;;;5055388;28;20025;-77
2021/11/29 03:48:22;;;;;;;8.88;5.88;;;1.70;86.80;;;;;;5055427;28;20323;-76
2021/11/29 03:50:48;;;;;;;8.02;6.20;;;1.80;86.70;;;;;;5055217;28;20120;-77
2021/11/29 03:53:15;;;;;;;9.02;6.20;;;1.80;86.60;;;;;;5037342;28;20017;-77
2021/11/29 03:55:40;;;;;;;9.07;6.15;;;1.80;86.50;;;;;;5055330;28;20033;-75
2021/11/29 03:58:07;;;;;;;9.50;5.93;;;1.90;86.50;;;;;;5055231;28;20319;-75
2021/11/29 04:00:33;;;;;;;7.88;5.90;;;1.90;86.40;;;;;;5037240;28;20108;-75
2021/11/29 04:02:59;;;;;;;8.40;6.32;;;1.90;86.20;;;;;;5055087;28;20029;-75
2021/11/29 04:05:25;;;;;;;9.30;6.55;;;1.90;86.20;;;;;;5037085;28;20032;-76
2021/11/29 04:07:50;;;;;;;7.78;5.53;;;1.90;86.20;;;;;;5054879;28;20032;-76
2021/11/29 04:10:16;;;;;;;7.90;6.13;;;2.00;86.00;;;;;;5054792;28;20385;-76
2021/11/29 04:12:42;;;;;;;7.60;6.05;;;1.90;85.70;;;;;;5054854;28;20025;-77
2021/11/29 04:15:08;;;;;;;8.98;6.38;;;1.90;85.10;;;;;;5054826;28;20021;-76
2021/11/29 04:17:35;;;;;;;10.43;6.28;;;1.80;84.70;;;;;;5036939;28;20120;-76
2021/11/29 04:20:02;;;;;;;8.27;6.50;;;1.80;84.80;;;;;;5054656;28;20491;-76
2021/11/29 04:22:28;;;;;;;9.90;7.07;;;1.70;84.90;;;;;;5054667;28;20461;-76
2021/11/29 04:24:57;;;;;;;12.52;7.47;;;1.80;84.80;;;;;;5054684;28;20031;-76
2021/11/29 04:27:22;;;;;;;8.52;6.40;;;1.70;84.70;;;;;;5054395;28;20029;-76
2021/11/29 04:29:49;;;;;;;10.23;7.03;;;1.70;84.90;;;;;;5054221;28;20358;-76
2021/11/29 04:32:15;;;;;;;13.07;6.40;;;1.70;84.60;;;;;;5054492;28;20051;-77
2021/11/29 04:34:40;;;;;;;10.02;7.47;;;1.60;84.60;;;;;;5054302;28;20096;-76
2021/11/29 04:37:06;;;;;;;9.60;6.63;;;1.60;84.40;;;;;;5054401;28;20116;-79
2021/11/29 04:39:33;;;;;;;9.57;7.35;;;1.60;84.30;;;;;;5054347;28;20025;-75
2021/11/29 04:42:01;;;;;;;11.80;7.82;;;1.60;84.50;;;;;;5054137;28;20029;-76
2021/11/29 04:44:27;;;;;;;12.23;7.32;;;1.60;84.50;;;;;;5054151;28;20017;-76
2021/11/29 04:46:52;;;;;;;14.45;9.25;;;1.40;84.60;;;;;;5054183;28;20040;-77
2021/11/29 04:49:18;;;;;;;14.63;8.63;;;1.40;84.70;;;;;;5054094;28;20048;-76
2021/11/29 04:51:43;;;;;;;15.07;8.77;;;1.40;84.90;;;;;;5053472;28;20055;-79
2021/11/29 04:54:09;;;;;;;11.75;7.45;;;1.40;84.90;;;;;;5053886;28;20377;-79
2021/11/29 04:56:36;;;;;;;16.38;9.68;;;1.40;84.90;;;;;;5053819;28;20568;-78
2021/11/29 04:59:02;;;;;;;11.10;7.20;;;1.40;84.80;;;;;;5035953;28;20538;-79
2021/11/29 05:01:28;;;;;;;14.38;8.93;;;1.30;84.80;;;;;;5053825;28;20029;-77
2021/11/29 05:03:53;;;;;;;13.93;8.43;;;1.40;84.80;;;;;;5053738;28;20532;-79
2021/11/29 05:06:19;;;;;;;13.13;7.40;;;1.30;84.50;;;;;;5053674;28;20047;-78
2021/11/29 05:08:45;;;;;;;10.55;6.90;;;1.30;84.50;;;;;;5053541;28;20056;-77
2021/11/29 05:11:11;;;;;;;15.65;7.47;;;1.20;84.80;;;;;;5035706;28;20060;-77
2021/11/29 05:13:37;;;;;;;11.68;6.93;;;1.20;85.00;;;;;;5053596;28;20477;-79
2021/11/29 05:16:03;;;;;;;10.13;6.75;;;1.10;85.20;;;;;;5053554;28;20029;-78
2021/11/29 05:18:29;;;;;;;12.70;6.30;;;1.20;84.90;;;;;;5053489;28;20416;-79
2021/11/29 05:20:55;;;;;;;11.50;7.18;;;1.20;84.80;;;;;;5053577;28;20094;-78
2021/11/29 05:23:20;;;;;;;10.98;7.00;;;1.20;84.80;;;;;;5035545;28;20028;-78
2021/11/29 05:25:46;;;;;;;18.63;8.55;;;1.20;84.40;;;;;;5053375;28;20024;-79
2021/11/29 05:28:11;;;;;;;13.75;7.65;;;1.20;84.50;;;;;;5053064;28;20361;-79
2021/11/29 05:30:37;;;;;;;17.08;8.48;;;1.20;84.40;;;;;;5053417;28;20087;-78
2021/11/29 05:33:03;;;;;;;20.05;9.70;;;1.20;84.50;;;;;;5053244;28;20029;-79
2021/11/29 05:35:29;;;;;;;16.08;8.70;;;1.20;84.20;;;;;;5035349;28;20461;-77
2021/11/29 05:37:54;;;;;;;17.23;8.35;;;1.20;84.00;;;;;;5053150;28;20071;-77
2021/11/29 05:40:20;;;;;;;15.98;8.55;;;1.20;83.60;;;;;;5036091;28;20033;-79
2021/11/29 05:42:46;;;;;;;13.00;7.30;;;1.20;83.80;;;;;;5053868;28;20095;-77
2021/11/29 05:45:13;;;;;;;14.80;8.05;;;1.20;83.70;;;;;;5053257;28;20021;-77
2021/11/29 05:47:39;;;;;;;13.15;7.60;;;1.20;83.50;;;;;;5035904;28;20380;-79
2021/11/29 05:50:06;;;;;;;15.68;8.52;;;1.30;83.40;;;;;;5035883;28;20025;-76
2021/11/29 05:52:33;;;;;;;13.00;7.22;;;1.30;83.50;;;;;;5053725;28;20495;-77
2021/11/29 05:54:58;;;;;;;9.35;6.32;;;1.30;83.40;;;;;;5062995;28;20025;-77
2021/11/29 05:57:24;;;;;;;13.07;6.97;;;1.30;83.20;;;;;;5056021;28;20028;-78
2021/11/29 05:59:50;;;;;;;14.52;6.63;;;1.30;83.00;;;;;;5052909;28;20033;-78
2021/11/29 06:02:15;;;;;;;11.95;6.90;;;1.30;82.90;;;;;;5052794;28;20025;-77
2021/11/29 06:04:41;;;;;;;10.52;6.28;;;1.30;82.90;;;;;;5051898;28;20112;-78
2021/11/29 06:07:07;;;;;;;14.82;6.13;;;1.30;83.10;;;;;;5052667;28;20461;-77
2021/11/29 06:09:32;;;;;;;11.65;6.65;;;1.30;82.90;;;;;;5052625;28;20029;-77
2021/11/29 06:11:58;;;;;;;11.82;6.88;;;1.40;83.00;;;;;;5052508;28;20116;-77
2021/11/29 06:14:26;;;;;;;8.23;5.97;;;1.40;82.40;;;;;;5052293;28;20101;-76
2021/11/29 06:16:53;;;;;;;9.18;6.63;;;1.40;82.20;;;;;;5051958;28;20389;-76
2021/11/29 06:19:18;;;;;;;10.40;6.40;;;1.40;82.30;;;;;;5052321;28;20028;-77
2021/11/29 06:21:44;;;;;;;10.43;6.80;;;1.40;82.20;;;;;;5052068;28;20021;-77
2021/11/29 06:24:10;;;;;;;12.32;7.95;;;1.50;82.30;;;;;;5052539;28;20032;-76
2021/11/29 06:26:35;;;;;;;16.73;9.80;;;1.50;82.30;;;;;;5052205;28;20487;-77
2021/11/29 06:29:01;;;;;;;14.88;8.70;;;1.50;82.30;;;;;;5051964;28;20500;-76
2021/11/29 06:31:27;;;;;;;12.63;7.38;;;1.40;81.80;;;;;;5051748;28;20075;-76
2021/11/29 06:33:52;;;;;;;12.23;7.50;;;1.40;82.40;;;;;;5052217;28;20052;-76
2021/11/29 06:36:18;;;;;;;11.93;7.57;;;1.30;83.40;;;;;;5052212;28;20029;-78
2021/11/29 06:38:47;;;;;;;11.10;6.85;;;1.30;82.70;;;;;;5052205;28;20135;-78
2021/11/29 06:41:13;;;;;;;14.27;8.88;;;1.30;82.80;;;;;;5052209;28;20024;-76
2021/11/29 06:43:38;;;;;;;13.50;7.90;;;1.30;83.40;;;;;;5052213;28;20025;-78
2021/11/29 06:46:04;;;;;;;12.20;8.00;;;1.30;83.60;;;;;;5051899;28;20381;-77
2021/11/29 06:48:30;;;;;;;13.52;8.60;;;1.30;84.00;;;;;;5052011;28;20453;-77
2021/11/29 06:50:56;;;;;;;12.55;8.13;;;1.30;84.00;;;;;;5051643;28;20095;-75
2021/11/29 06:53:23;;;;;;;14.45;8.88;;;1.30;84.10;;;;;;5052050;28;20044;-78
2021/11/29 06:55:50;;;;;;;14.27;9.00;;;1.30;84.20;;;;;;5052026;28;20476;-76
2021/11/29 06:58:16;;;;;;;16.05;9.75;;;1.10;84.80;;;;;;5051984;28;20096;-77
2021/11/29 07:00:41;;;;;;;17.58;9.65;;;1.10;85.10;;;;;;5051848;28;20053;-77
2021/11/29 07:03:07;;;;;;;16.17;9.00;;;1.10;85.40;;;;;;5051604;28;20461;-76
2021/11/29 07:05:33;;;;;;;14.88;9.48;;;1.10;85.80;;;;;;5051872;28;20392;-77
2021/11/29 07:07:59;;;;;;;16.38;9.70;;;1.20;85.90;;;;;;5051963;28;20501;-76
2021/11/29 07:10:25;;;;;;;14.88;9.35;;;1.20;86.10;;;;;;5051622;28;20021;-75
2021/11/29 07:12:52;;;;;;;16.95;10.20;;;1.20;85.80;;;;;;5051775;28;20029;-75
2021/11/29 07:15:19;;;;;;;15.77;10.13;;;1.20;85.50;;;;;;5053211;28;20020;-75
2021/11/29 07:17:46;;;;;;;14.20;9.50;;;1.20;85.20;;;;;;5055381;28;20465;-76
2021/11/29 07:20:11;;;;;;;15.30;10.07;;;1.20;85.20;;;;;;5055222;28;20370;-76
2021/11/29 07:22:37;;;;;;;18.33;11.18;;;1.30;84.80;;;;;;5054532;28;20036;-77
2021/11/29 07:25:04;;;;;;;17.92;10.23;;;1.30;84.80;;;;;;5053954;28;20029;-76
2021/11/29 07:27:31;;;;;;;22.55;9.90;;;1.30;84.80;;;;;;5054719;28;20025;-77
2021/11/29 07:29:58;;;;;;;14.93;9.85;;;1.30;84.70;;;;;;5054470;28;20048;-77
2021/11/29 07:32:24;;;;;;;13.90;8.85;;;1.30;84.30;;;;;;5055253;28;20362;-77
2021/11/29 07:34:49;;;;;;;17.08;10.27;;;1.30;84.30;;;;;;5055162;28;20032;-77
2021/11/29 07:37:16;;;;;;;15.60;10.30;;;1.40;84.50;;;;;;5055538;28;20457;-77
2021/11/29 07:39:43;;;;;;;17.08;10.98;;;1.40;84.20;;;;;;5055197;28;20071;-78
2021/11/29 07:42:09;;;;;;;14.93;9.25;;;1.30;84.40;;;;;;5055160;28;20025;-77
2021/11/29 07:44:35;;;;;;;16.40;9.55;;;1.40;84.60;;;;;;5037004;28;20031;-77
2021/11/29 07:47:01;;;;;;;15.52;9.80;;;1.30;84.40;;;;;;5054885;28;20074;-77
2021/11/29 07:49:26;;;;;;;16.00;10.65;;;1.40;84.40;;;;;;5054727;28;20059;-77
2021/11/29 07:51:53;;;;;;;20.65;9.52;;;1.50;84.20;;;;;;5054668;28;20469;-77
2021/11/29 07:54:19;;;;;;;18.35;9.50;;;1.40;84.00;;;;;;5054860;28;20051;-76
2021/11/29 07:56:45;;;;;;;13.77;8.77;;;1.50;84.10;;;;;;5036314;28;20032;-76
2021/11/29 07:59:10;;;;;;;14.10;9.32;;;1.50;84.00;;;;;;5054592;28;20021;-76
2021/11/29 08:01:37;;;;;;;15.57;9.60;;;1.60;84.10;;;;;;5054569;28;20028;-77
2021/11/29 08:04:02;;;;;;;14.13;9.43;;;1.70;83.90;;;;;;5054519;28;20021;-77
2021/11/29 08:06:28;;;;;;;15.52;9.32;;;1.80;83.50;;;;;;5054616;28;20025;-76
2021/11/29 08:08:53;;;;;;;14.73;8.68;;;1.70;82.90;;;;;;5054432;28;20488;-77
2021/11/29 08:11:19;;;;;;;13.32;8.90;;;1.80;82.50;;;;;;5054315;28;20040;-76
2021/11/29 08:13:45;;;;;;;13.93;8.88;;;1.80;82.30;;;;;;5053771;28;20035;-78
2021/11/29 08:16:10;;;;;;;16.48;10.15;;;1.80;82.10;;;;;;5054173;28;20033;-76
2021/11/29 08:18:36;;;;;;;16.70;9.43;;;1.80;81.80;;;;;;5054162;28;20092;-77
2021/11/29 08:21:02;;;;;;;19.45;10.73;;;1.80;81.90;;;;;;5053914;28;20031;-78
2021/11/29 08:23:27;;;;;;;17.50;10.02;;;1.80;82.20;;;;;;5053871;28;20391;-78
2021/11/29 08:25:53;;;;;;;19.08;10.65;;;1.70;83.00;;;;;;5053715;28;20443;-78
2021/11/29 08:28:19;;;;;;;15.40;9.75;;;1.70;83.00;;;;;;5053410;28;20039;-82
2021/11/29 08:30:44;;;;;;;17.33;10.27;;;1.70;83.00;;;;;;5036507;28;20044;-78
2021/11/29 08:33:12;;;;;;;18.20;10.55;;;1.80;84.10;;;;;;5054439;28;20049;-76
2021/11/29 08:35:39;;;;;;;13.57;8.55;;;1.90;83.10;;;;;;5054053;28;20437;-75
2021/11/29 08:38:05;;;;;;;12.20;8.32;;;2.10;82.60;;;;;;5054034;28;20017;-74
2021/11/29 08:40:34;;;;;;;15.63;9.73;;;2.20;81.80;;;;;;5053913;28;20082;-74
2021/11/29 08:43:04;;;;;;;12.82;8.48;;;2.20;81.40;;;;;;5053627;28;20109;-73
2021/11/29 08:45:32;;;;;;;25.45;9.63;;;2.30;80.80;;;;;;5053846;28;20111;-72
2021/11/29 08:47:58;;;;;;;20.23;10.60;;;2.40;83.60;;;;;;5053617;28;20027;-72
2021/11/29 08:50:24;;;;;;;17.13;8.82;;;3.00;88.20;;;;;;5053575;28;20040;-72
2021/11/29 08:52:49;;;;;;;10.55;7.50;;;3.30;84.40;;;;;;5053645;28;20025;-73
2021/11/29 08:55:15;;;;;;;16.65;8.93;;;3.90;82.90;;;;;;5053643;28;20039;-73
2021/11/29 08:57:41;;;;;;;9.52;6.43;;;4.30;79.70;;;;;;5053398;28;20029;-74
2021/11/29 09:00:16;;;;;;;11.32;7.03;;;4.40;74.80;;;;;;5053515;28;20017;-75
2021/11/29 09:02:43;;;;;;;13.05;7.72;;;4.10;70.50;;;;;;5053714;28;20029;-76
2021/11/29 09:05:09;;;;;;;12.35;7.72;;;3.80;71.10;;;;;;5053503;28;20143;-76
2021/11/29 09:07:35;;;;;;;15.13;7.25;;;3.50;71.90;;;;;;5053412;28;20025;-76
2021/11/29 09:10:02;;;;;;;13.57;7.50;;;3.20;73.00;;;;;;5053447;28;20047;-76
2021/11/29 09:12:28;;;;;;;11.32;6.40;;;3.10;73.70;;;;;;5035766;28;20032;-75
2021/11/29 09:14:54;;;;;;;9.70;6.13;;;3.00;74.70;;;;;;5053648;28;20075;-75
2021/11/29 09:17:20;;;;;;;11.27;6.18;;;2.90;74.20;;;;;;5053641;28;20037;-76
2021/11/29 09:19:45;;;;;;;14.38;7.63;;;2.80;74.50;;;;;;5053002;28;20040;-76
2021/11/29 09:22:11;;;;;;;13.80;7.70;;;2.60;75.00;;;;;;5053362;28;20028;-76
2021/11/29 09:24:37;;;;;;;14.45;7.45;;;2.60;75.40;;;;;;5053110;28;20525;-75
2021/11/29 09:27:02;;;;;;;14.77;8.38;;;2.60;76.00;;;;;;5035370;28;20461;-77
2021/11/29 09:29:29;;;;;;;15.18;8.30;;;2.60;76.00;;;;;;5052944;28;20579;-76
2021/11/29 09:31:56;;;;;;;11.10;7.50;;;2.50;76.30;;;;;;5052870;28;20104;-76
2021/11/29 09:34:22;;;;;;;12.45;6.40;;;2.50;76.60;;;;;;5052808;28;20025;-76
2021/11/29 09:36:48;;;;;;;13.27;6.63;;;2.60;76.60;;;;;;5052865;28;20099;-76
2021/11/29 09:39:14;;;;;;;9.65;5.43;;;2.60;75.80;;;;;;5052731;28;20021;-75
2021/11/29 09:41:39;;;;;;;9.27;5.40;;;2.70;75.20;;;;;;5052735;28;20100;-75
2021/11/29 09:44:05;;;;;;;10.57;6.72;;;2.60;74.70;;;;;;5052783;28;20052;-75
2021/11/29 09:46:32;;;;;;;18.48;9.38;;;2.60;74.80;;;;;;5052737;28;20090;-75
2021/11/29 09:48:58;;;;;;;13.52;6.50;;;2.70;74.40;;;;;;5052578;28;20162;-76
2021/11/29 09:51:25;;;;;;;9.20;5.70;;;2.60;74.80;;;;;;5052591;28;20037;-75
2021/11/29 09:53:50;;;;;;;11.20;6.10;;;2.70;73.50;;;;;;5052603;28;20025;-76
2021/11/29 09:56:16;;;;;;;9.40;4.80;;;2.70;72.70;;;;;;5052524;28;20052;-75
2021/11/29 09:58:42;;;;;;;10.35;6.20;;;2.70;72.90;;;;;;5052715;28;20108;-75
2021/11/29 10:01:08;;;;;;;10.82;5.55;;;2.80;72.20;;;;;;5052324;28;20029;-76
2021/11/29 10:03:34;;;;;;;9.63;5.30;;;2.90;72.10;;;;;;5052834;28;20182;-75
2021/11/29 10:06:00;;;;;;;10.27;4.85;;;3.00;72.10;;;;;;5052686;28;20056;-75
2021/11/29 10:08:33;;;;;;;10.35;6.15;;;3.10;72.20;;;;;;5052709;28;20463;-74
2021/11/29 10:11:11;;;;;;;9.73;5.97;;;3.30;71.80;;;;;;5052307;28;20037;-74
2021/11/29 10:13:50;;;;;;;10.85;6.30;;;3.50;71.30;;;;;;5052617;28;20051;-74
2021/11/29 10:16:36;;;;;;;13.25;7.10;;;3.80;69.80;;;;;;5052531;28;20023;-74
2021/11/29 10:19:04;;;;;;;11.07;5.85;;;4.40;67.30;;;;;;5052493;28;20052;-74
2021/11/29 10:21:30;;;;;;;11.10;4.82;;;4.80;66.30;;;;;;5052511;28;20040;-76
2021/11/29 10:23:58;;;;;;;7.78;5.20;;;5.30;63.40;;;;;;5052350;28;20473;-73
2021/11/29 10:26:35;;;;;;;7.78;5.25;;;5.10;63.70;;;;;;5052436;28;20105;-73
2021/11/29 10:29:03;;;;;;;7.80;4.55;;;4.80;62.00;;;;;;5052529;28;20064;-73
2021/11/29 10:31:42;;;;;;;10.43;5.30;;;4.50;63.70;;;;;;5052383;28;20052;-76
2021/11/29 10:34:16;;;;;;;11.68;5.35;;;4.30;64.40;;;;;;5052165;28;20028;-75
2021/11/29 10:36:48;;;;;;;9.65;5.70;;;3.40;67.70;;;;;;5052392;28;20031;-75
2021/11/29 10:39:20;;;;;;;10.40;6.43;;;4.00;67.50;;;;;;5034019;28;20366;-74
2021/11/29 10:41:54;;;;;;;13.02;6.30;;;4.40;65.80;;;;;;5052100;28;20040;-74
2021/11/29 10:44:30;;;;;;;12.25;6.35;;;4.30;66.10;;;;;;5052516;28;20033;-74
2021/11/29 10:46:58;;;;;;;9.30;5.95;;;4.80;64.60;;;;;;5052292;28;20017;-74
2021/11/29 10:49:30;;;;;;;9.95;5.93;;;5.30;63.10;;;;;;5052290;28;20025;-75
2021/11/29 10:51:58;;;;;;;11.90;6.35;;;5.70;61.10;;;;;;5056070;28;20033;-74
2021/11/29 10:54:27;;;;;;;12.80;6.00;;;5.90;60.90;;;;;;5055989;28;20420;-75
2021/11/29 10:56:56;;;;;;;12.10;6.63;;;5.80;60.20;;;;;;5055711;28;20032;-76
2021/11/29 10:59:24;;;;;;;9.95;5.43;;;6.00;59.20;;;;;;5055604;28;20031;-76
2021/11/29 11:01:58;;;;;;;8.23;5.10;;;6.50;58.90;;;;;;5055844;28;20469;-75
2021/11/29 11:04:29;;;;;;;8.05;4.50;;;7.40;54.10;;;;;;5055532;28;20021;-76
2021/11/29 11:06:59;;;;;;;9.25;4.43;;;6.80;52.80;;;;;;5055488;28;20424;-76
2021/11/29 11:09:30;;;;;;;10.88;4.68;;;7.00;51.50;;;;;;5054756;28;20053;-76
2021/11/29 11:11:58;;;;;;;12.52;6.18;;;6.50;53.30;;;;;;5055282;28;20075;-76
2021/11/29 11:14:31;;;;;;;19.80;8.10;;;6.30;53.20;;;;;;5037151;28;20017;-75
2021/11/29 11:17:00;;;;;;;12.85;6.05;;;6.20;54.10;;;;;;5055443;28;20571;-76
2021/11/29 11:19:37;;;;;;;13.85;6.43;;;5.60;56.20;;;;;;5055235;28;20060;-77
2021/11/29 11:22:02;;;;;;;8.75;5.47;;;5.30;56.70;;;;;;5055302;28;20025;-76
2021/11/29 11:24:33;;;;;;;12.43;5.68;;;5.00;58.20;;;;;;5055499;28;20025;-76
2021/11/29 11:27:00;;;;;;;11.10;5.57;;;4.50;61.20;;;;;;5054965;28;20635;-76
2021/11/29 11:29:48;;;;;;;9.00;4.60;;;4.80;60.40;;;;;;5054935;28;20196;-76
2021/11/29 11:32:13;;;;;;;8.70;4.63;;;5.30;58.30;;;;;;5055073;28;20145;-75
2021/11/29 11:34:43;;;;;;;11.38;4.32;;;5.30;57.50;;;;;;5054824;28;20099;-75
2021/11/29 11:37:09;;;;;;;11.60;4.95;;;4.60;59.40;;;;;;5054618;28;20049;-77
2021/11/29 11:39:35;;;;;;;7.82;4.70;;;4.70;60.00;;;;;;5054187;28;20053;-76
2021/11/29 11:42:02;;;;;;;8.45;4.03;;;4.80;59.90;;;;;;5054578;28;20031;-76
2021/11/29 11:44:31;;;;;;;11.23;5.35;;;4.90;59.80;;;;;;5054557;28;20032;-76
2021/11/29 11:46:59;;;;;;;9.38;3.90;;;5.30;59.00;;;;;;5054394;28;20041;-75
2021/11/29 11:49:26;;;;;;;7.32;4.35;;;5.30;57.50;;;;;;5054003;28;20104;-77
2021/11/29 11:51:52;;;;;;;6.50;3.80;;;5.30;58.70;;;;;;5053609;28;20041;-76
2021/11/29 11:54:18;;;;;;;9.25;4.18;;;6.60;54.50;;;;;;5053565;28;20025;-76
2021/11/29 11:56:44;;;;;;;14.30;4.82;;;7.40;52.40;;;;;;5054049;28;20413;-76
2021/11/29 11:59:18;;;;;;;13.07;5.07;;;8.50;50.40;;;;;;5053812;28;20033;-76
2021/11/29 12:01:46;;;;;;;7.57;2.70;;;10.50;44.60;;;;;;5052619;28;20016;-77
2021/11/29 12:04:14;;;;;;;4.20;2.65;;;11.60;38.90;;;;;;5036216;28;20516;-77
2021/11/29 12:06:41;;;;;;;10.30;3.10;;;12.10;37.40;;;;;;5053868;28;20052;-78
2021/11/29 12:09:09;;;;;;;6.32;2.90;;;11.70;38.00;;;;;;5053952;28;20496;-79
2021/11/29 12:11:45;;;;;;;5.30;2.63;;;9.10;42.40;;;;;;5053572;28;20037;-79
2021/11/29 12:14:26;;;;;;;10.70;3.05;;;7.90;49.80;;;;;;5054095;28;20021;-77
2021/11/29 12:16:56;;;;;;;8.88;3.03;;;7.10;48.50;;;;;;5054054;28;20017;-77
2021/11/29 12:19:25;;;;;;;8.52;2.60;;;6.00;56.10;;;;;;5054313;28;20028;-77
2021/11/29 12:21:56;;;;;;;9.27;2.95;;;6.30;61.80;;;;;;5053813;28;20029;-77
2021/11/29 12:24:26;;;;;;;6.63;2.60;;;6.30;54.50;;;;;;5053987;28;20035;-76
2021/11/29 12:27:18;;;;;;;9.77;3.40;;;6.20;53.50;;;;;;5053891;28;20140;-76
2021/11/29 12:29:55;;;;;;;6.47;3.05;;;5.80;54.10;;;;;;5049914;28;20041;-76
2021/11/29 12:32:23;;;;;;;6.43;2.50;;;5.60;55.50;;;;;;5053725;28;20083;-75
2021/11/29 12:34:58;;;;;;;7.07;3.08;;;5.60;54.40;;;;;;5053597;28;20025;-76
2021/11/29 12:37:32;;;;;;;9.23;3.25;;;5.30;52.90;;;;;;5053532;28;20086;-75
2021/11/29 12:40:03;;;;;;;12.93;3.37;;;5.70;53.80;;;;;;5053531;28;20370;-77
2021/11/29 12:42:28;;;;;;;7.88;2.65;;;6.50;61.10;;;;;;5054182;28;20021;-75
2021/11/29 12:45:11;;;;;;;5.85;2.90;;;7.00;56.70;;;;;;5053436;28;20031;-77
2021/11/29 12:47:40;;;;;;;5.82;3.22;;;7.80;53.90;;;;;;5053643;28;20031;-76
2021/11/29 12:50:26;;;;;;;6.93;3.28;;;8.10;51.40;;;;;;5053521;28;20120;-77